sensor_id;sensor_type;location;lat;lon;timestamp;temperature;humidity
54178;DHT22;40085;53.004;6.770;2023-04-24T07:13:55;10.30;99.90
54178;DHT22;40085;53.004;6.770;2023-04-24T07:16:21;10.20;99.90
54178;DHT22;40085;53.004;6.770;2023-04-24T07:18:47;10.10;99.90
54178;DHT22;40085;53.004;6.770;2023-04-24T07:21:12;10.20;99.90
54178;DHT22;40085;53.004;6.770;2023-04-24T07:23:38;10.20;99.90
54178;DHT22;40085;53.004;6.770;2023-04-24T07:26:04;10.20;99.90
54178;DHT22;40085;53.004;6.770;2023-04-24T07:28:30;10.30;99.90
54178;DHT22;40085;53.004;6.770;2023-04-24T07:30:57;10.40;99.90
54178;DHT22;40085;53.004;6.770;2023-04-24T07:33:24;10.40;99.90
54178;DHT22;40085;53.004;6.770;2023-04-24T07:35:50;10.40;99.90
54178;DHT22;40085;53.004;6.770;2023-04-24T07:38:15;10.30;99.90
54178;DHT22;40085;53.004;6.770;2023-04-24T07:40:41;10.30;99.90
54178;DHT22;40085;53.004;6.770;2023-04-24T07:43:07;10.30;99.90
54178;DHT22;40085;53.004;6.770;2023-04-24T07:45:32;10.20;99.90
54178;DHT22;40085;53.004;6.770;2023-04-24T07:48:02;10.20;99.90
54178;DHT22;40085;53.004;6.770;2023-04-24T07:50:28;10.10;99.90
54178;DHT22;40085;53.004;6.770;2023-04-24T07:52:53;10.00;99.90
54178;DHT22;40085;53.004;6.770;2023-04-24T07:55:19;10.10;99.90
54178;DHT22;40085;53.004;6.770;2023-04-24T07:57:45;10.00;99.90
54178;DHT22;40085;53.004;6.770;2023-04-24T08:00:11;10.00;99.90
54178;DHT22;40085;53.004;6.770;2023-04-24T08:02:37;10.00;99.90
54178;DHT22;40085;53.004;6.770;2023-04-24T08:05:02;10.30;99.90
54178;DHT22;40085;53.004;6.770;2023-04-24T08:07:29;10.10;99.90
54178;DHT22;40085;53.004;6.770;2023-04-24T08:09:55;10.10;99.90
54178;DHT22;40085;53.004;6.770;2023-04-24T08:12:20;10.60;99.90
54178;DHT22;40085;53.004;6.770;2023-04-24T08:14:46;10.40;99.90
54178;DHT22;40085;53.004;6.770;2023-04-24T08:17:11;10.10;99.90
54178;DHT22;40085;53.004;6.770;2023-04-24T08:19:39;10.10;99.90
54178;DHT22;40085;53.004;6.770;2023-04-24T08:22:08;10.10;99.90
54178;DHT22;40085;53.004;6.770;2023-04-24T08:24:34;10.00;99.90
54178;DHT22;40085;53.004;6.770;2023-04-24T08:26:59;9.90;99.90
54178;DHT22;40085;53.004;6.770;2023-04-24T08:29:26;9.80;99.90
54178;DHT22;40085;53.004;6.770;2023-04-24T08:31:52;9.90;99.90
54178;DHT22;40085;53.004;6.770;2023-04-24T08:34:20;9.80;99.90
54178;DHT22;40085;53.004;6.770;2023-04-24T08:36:45;9.80;99.90
54178;DHT22;40085;53.004;6.770;2023-04-24T08:39:11;9.70;99.90
54178;DHT22;40085;53.004;6.770;2023-04-24T08:41:37;9.70;99.90
54178;DHT22;40085;53.004;6.770;2023-04-24T08:44:03;9.70;99.90
54178;DHT22;40085;53.004;6.770;2023-04-24T08:46:30;9.70;99.90
54178;DHT22;40085;53.004;6.770;2023-04-24T08:48:56;9.70;99.90
54178;DHT22;40085;53.004;6.770;2023-04-24T08:51:22;9.70;99.90
54178;DHT22;40085;53.004;6.770;2023-04-24T08:53:53;9.50;99.90
54178;DHT22;40085;53.004;6.770;2023-04-24T08:56:21;9.50;99.90
54178;DHT22;40085;53.004;6.770;2023-04-24T08:58:51;10.20;99.90
54178;DHT22;40085;53.004;6.770;2023-04-24T09:01:19;9.40;99.90
54178;DHT22;40085;53.004;6.770;2023-04-24T09:03:47;9.40;99.90
54178;DHT22;40085;53.004;6.770;2023-04-24T09:06:14;9.30;99.90
54178;DHT22;40085;53.004;6.770;2023-04-24T09:08:41;9.30;99.90
54178;DHT22;40085;53.004;6.770;2023-04-24T09:11:08;9.30;99.90
54178;DHT22;40085;53.004;6.770;2023-04-24T09:13:34;9.20;99.90
54178;DHT22;40085;53.004;6.770;2023-04-24T09:16:00;9.20;99.90
54178;DHT22;40085;53.004;6.770;2023-04-24T09:18:26;9.20;99.90
54178;DHT22;40085;53.004;6.770;2023-04-24T09:21:07;9.20;99.90
54178;DHT22;40085;53.004;6.770;2023-04-24T09:23:33;9.10;99.90
54178;DHT22;40085;53.004;6.770;2023-04-24T09:26:01;9.00;99.90
54178;DHT22;40085;53.004;6.770;2023-04-24T09:28:30;9.00;99.90
54178;DHT22;40085;53.004;6.770;2023-04-24T09:31:26;8.90;99.90
54178;DHT22;40085;53.004;6.770;2023-04-24T09:34:03;8.90;99.90
54178;DHT22;40085;53.004;6.770;2023-04-24T09:36:35;8.90;99.90
54178;DHT22;40085;53.004;6.770;2023-04-24T09:39:06;8.90;99.90
54178;DHT22;40085;53.004;6.770;2023-04-24T09:41:33;8.90;99.90
54178;DHT22;40085;53.004;6.770;2023-04-24T09:44:14;8.90;99.90
54178;DHT22;40085;53.004;6.770;2023-04-24T09:46:41;8.90;99.90
54178;DHT22;40085;53.004;6.770;2023-04-24T09:49:15;8.90;99.90
54178;DHT22;40085;53.004;6.770;2023-04-24T09:51:42;8.90;99.90
54178;DHT22;40085;53.004;6.770;2023-04-24T09:54:17;9.00;99.90
54178;DHT22;40085;53.004;6.770;2023-04-24T09:56:44;9.00;99.90
54178;DHT22;40085;53.004;6.770;2023-04-24T09:59:11;9.00;99.90
54178;DHT22;40085;53.004;6.770;2023-04-24T10:01:37;9.00;99.90
54178;DHT22;40085;53.004;6.770;2023-04-24T10:04:04;9.00;99.90
54178;DHT22;40085;53.004;6.770;2023-04-24T10:06:33;9.00;99.90
54178;DHT22;40085;53.004;6.770;2023-04-24T10:08:59;9.00;99.90
54178;DHT22;40085;53.004;6.770;2023-04-24T10:11:28;9.00;99.90
54178;DHT22;40085;53.004;6.770;2023-04-24T10:13:54;8.90;99.90
54178;DHT22;40085;53.004;6.770;2023-04-24T10:16:21;9.00;99.90
54178;DHT22;40085;53.004;6.770;2023-04-24T10:18:48;9.60;99.90
54178;DHT22;40085;53.004;6.770;2023-04-24T10:21:14;9.00;99.90
54178;DHT22;40085;53.004;6.770;2023-04-24T10:23:41;8.90;99.90
54178;DHT22;40085;53.004;6.770;2023-04-24T10:26:08;9.00;99.90
54178;DHT22;40085;53.004;6.770;2023-04-24T10:28:36;9.00;99.90
54178;DHT22;40085;53.004;6.770;2023-04-24T10:31:02;9.00;99.90
54178;DHT22;40085;53.004;6.770;2023-04-24T10:33:29;9.10;99.90
54178;DHT22;40085;53.004;6.770;2023-04-24T10:35:56;9.10;99.90
54178;DHT22;40085;53.004;6.770;2023-04-24T10:38:25;9.10;99.90
54178;DHT22;40085;53.004;6.770;2023-04-24T10:40:57;9.20;99.90
54178;DHT22;40085;53.004;6.770;2023-04-24T10:43:33;9.30;99.90
54178;DHT22;40085;53.004;6.770;2023-04-24T10:46:03;9.30;99.90
54178;DHT22;40085;53.004;6.770;2023-04-24T10:48:30;9.30;99.90
54178;DHT22;40085;53.004;6.770;2023-04-24T10:50:55;9.30;99.90
54178;DHT22;40085;53.004;6.770;2023-04-24T10:53:23;10.40;99.90
54178;DHT22;40085;53.004;6.770;2023-04-24T10:55:51;9.30;99.90
54178;DHT22;40085;53.004;6.770;2023-04-24T10:58:22;9.30;99.90
54178;DHT22;40085;53.004;6.770;2023-04-24T11:00:59;9.20;99.90
54178;DHT22;40085;53.004;6.770;2023-04-24T11:03:33;9.30;99.90
54178;DHT22;40085;53.004;6.770;2023-04-24T11:06:07;9.30;99.90
54178;DHT22;40085;53.004;6.770;2023-04-24T11:08:42;9.30;99.90
54178;DHT22;40085;53.004;6.770;2023-04-24T11:11:09;9.40;99.90
54178;DHT22;40085;53.004;6.770;2023-04-24T11:24:25;9.50;99.90
54178;DHT22;40085;53.004;6.770;2023-04-24T11:26:55;9.50;99.90
54178;DHT22;40085;53.004;6.770;2023-04-24T11:29:23;9.60;99.90
54178;DHT22;40085;53.004;6.770;2023-04-24T11:32:18;9.70;99.90
54178;DHT22;40085;53.004;6.770;2023-04-24T11:34:52;9.80;99.90
54178;DHT22;40085;53.004;6.770;2023-04-24T11:37:18;10.00;99.90
54178;DHT22;40085;53.004;6.770;2023-04-24T11:39:44;10.00;99.90
54178;DHT22;40085;53.004;6.770;2023-04-24T11:42:09;10.50;99.90
54178;DHT22;40085;53.004;6.770;2023-04-24T11:44:35;9.90;99.90
54178;DHT22;40085;53.004;6.770;2023-04-24T11:47:05;9.80;99.90
54178;DHT22;40085;53.004;6.770;2023-04-24T11:49:31;9.80;99.90
54178;DHT22;40085;53.004;6.770;2023-04-24T11:51:56;9.80;99.90
54178;DHT22;40085;53.004;6.770;2023-04-24T11:54:22;9.80;99.90
54178;DHT22;40085;53.004;6.770;2023-04-24T11:56:48;9.90;99.90
54178;DHT22;40085;53.004;6.770;2023-04-24T11:59:14;10.00;99.90
54178;DHT22;40085;53.004;6.770;2023-04-24T12:01:47;10.20;99.90
54178;DHT22;40085;53.004;6.770;2023-04-24T12:04:15;10.20;99.90
54178;DHT22;40085;53.004;6.770;2023-04-24T12:06:59;10.10;99.90
54178;DHT22;40085;53.004;6.770;2023-04-24T12:09:24;10.00;99.90
54178;DHT22;40085;53.004;6.770;2023-04-24T12:11:54;9.90;99.90
54178;DHT22;40085;53.004;6.770;2023-04-24T12:14:23;9.80;99.90
54178;DHT22;40085;53.004;6.770;2023-04-24T12:16:50;9.70;99.90
54178;DHT22;40085;53.004;6.770;2023-04-24T12:19:21;9.60;99.90
54178;DHT22;40085;53.004;6.770;2023-04-24T12:21:59;9.50;99.90
54178;DHT22;40085;53.004;6.770;2023-04-24T12:24:25;9.40;99.90
54178;DHT22;40085;53.004;6.770;2023-04-24T12:26:51;9.30;99.90
54178;DHT22;40085;53.004;6.770;2023-04-24T12:29:20;9.20;99.90
54178;DHT22;40085;53.004;6.770;2023-04-24T12:31:46;9.10;99.90
54178;DHT22;40085;53.004;6.770;2023-04-24T12:36:45;9.40;99.90
54178;DHT22;40085;53.004;6.770;2023-04-24T12:39:18;9.10;99.90
54178;DHT22;40085;53.004;6.770;2023-04-24T12:41:57;9.10;99.90
54178;DHT22;40085;53.004;6.770;2023-04-24T12:44:33;9.20;99.90
54178;DHT22;40085;53.004;6.770;2023-04-24T12:47:01;9.30;99.90
54178;DHT22;40085;53.004;6.770;2023-04-24T12:49:27;9.40;99.90
54178;DHT22;40085;53.004;6.770;2023-04-24T12:51:53;9.40;99.90
54178;DHT22;40085;53.004;6.770;2023-04-24T12:54:19;9.40;99.90
54178;DHT22;40085;53.004;6.770;2023-04-24T12:56:45;9.50;99.90
54178;DHT22;40085;53.004;6.770;2023-04-24T12:59:10;9.50;99.90
54178;DHT22;40085;53.004;6.770;2023-04-24T13:01:36;9.60;99.90
54178;DHT22;40085;53.004;6.770;2023-04-24T13:04:01;9.60;99.90
54178;DHT22;40085;53.004;6.770;2023-04-24T13:06:27;9.70;99.90
54178;DHT22;40085;53.004;6.770;2023-04-24T13:08:53;9.80;99.90
54178;DHT22;40085;53.004;6.770;2023-04-24T13:11:20;9.60;99.90
54178;DHT22;40085;53.004;6.770;2023-04-24T13:13:47;9.60;99.90
54178;DHT22;40085;53.004;6.770;2023-04-24T13:16:13;9.50;99.90
54178;DHT22;40085;53.004;6.770;2023-04-24T13:18:38;9.50;99.90
54178;DHT22;40085;53.004;6.770;2023-04-24T13:21:04;9.40;99.90
54178;DHT22;40085;53.004;6.770;2023-04-24T13:23:29;9.40;99.90
54178;DHT22;40085;53.004;6.770;2023-04-24T13:25:55;9.50;99.90
54178;DHT22;40085;53.004;6.770;2023-04-24T13:28:24;9.60;99.90
54178;DHT22;40085;53.004;6.770;2023-04-24T13:30:50;9.60;99.90
54178;DHT22;40085;53.004;6.770;2023-04-24T13:33:16;9.70;99.90
54178;DHT22;40085;53.004;6.770;2023-04-24T13:35:42;9.70;99.90
54178;DHT22;40085;53.004;6.770;2023-04-24T13:38:07;9.70;99.90
54178;DHT22;40085;53.004;6.770;2023-04-24T13:40:33;9.60;99.90
54178;DHT22;40085;53.004;6.770;2023-04-24T13:42:59;9.60;99.90
54178;DHT22;40085;53.004;6.770;2023-04-24T13:45:26;9.50;99.90
54178;DHT22;40085;53.004;6.770;2023-04-24T13:47:51;9.50;99.90
54178;DHT22;40085;53.004;6.770;2023-04-24T13:50:17;9.50;99.90
54178;DHT22;40085;53.004;6.770;2023-04-24T13:52:43;9.50;99.90
54178;DHT22;40085;53.004;6.770;2023-04-24T13:55:08;9.50;99.90
54178;DHT22;40085;53.004;6.770;2023-04-24T13:57:35;9.60;99.90
54178;DHT22;40085;53.004;6.770;2023-04-24T14:00:00;9.70;99.90
54178;DHT22;40085;53.004;6.770;2023-04-24T14:02:29;9.80;99.90
54178;DHT22;40085;53.004;6.770;2023-04-24T14:04:55;9.90;99.90
54178;DHT22;40085;53.004;6.770;2023-04-24T14:07:20;10.00;99.90
54178;DHT22;40085;53.004;6.770;2023-04-24T14:09:46;10.10;99.90
54178;DHT22;40085;53.004;6.770;2023-04-24T14:12:11;10.80;99.90
54178;DHT22;40085;53.004;6.770;2023-04-24T14:14:38;9.90;99.90
54178;DHT22;40085;53.004;6.770;2023-04-24T14:17:03;9.90;99.90
54178;DHT22;40085;53.004;6.770;2023-04-24T14:19:29;9.80;99.90
54178;DHT22;40085;53.004;6.770;2023-04-24T14:21:54;9.80;43.70
54178;DHT22;40085;53.004;6.770;2023-04-24T14:24:22;9.80;27.30
54178;DHT22;40085;53.004;6.770;2023-04-24T14:26:47;9.80;27.20
54178;DHT22;40085;53.004;6.770;2023-04-24T14:29:13;9.70;40.90
54178;DHT22;40085;53.004;6.770;2023-04-24T14:31:38;9.60;35.90
54178;DHT22;40085;53.004;6.770;2023-04-24T14:34:04;9.60;50.30
54178;DHT22;40085;53.004;6.770;2023-04-24T14:36:29;9.50;41.00
54178;DHT22;40085;53.004;6.770;2023-04-24T14:38:56;9.50;58.40
54178;DHT22;40085;53.004;6.770;2023-04-24T14:41:22;9.50;63.70
54178;DHT22;40085;53.004;6.770;2023-04-24T14:43:48;9.50;60.40
54178;DHT22;40085;53.004;6.770;2023-04-24T14:46:13;9.50;64.80
54178;DHT22;40085;53.004;6.770;2023-04-24T14:48:39;9.50;76.00
54178;DHT22;40085;53.004;6.770;2023-04-24T14:51:04;9.50;57.90
54178;DHT22;40085;53.004;6.770;2023-04-24T14:53:30;9.50;82.60
54178;DHT22;40085;53.004;6.770;2023-04-24T14:55:56;9.30;97.20
54178;DHT22;40085;53.004;6.770;2023-04-24T14:58:22;9.20;99.90
54178;DHT22;40085;53.004;6.770;2023-04-24T15:00:47;9.10;99.90
54178;DHT22;40085;53.004;6.770;2023-04-24T15:03:15;9.50;99.90
54178;DHT22;40085;53.004;6.770;2023-04-24T15:05:41;9.00;99.90
54178;DHT22;40085;53.004;6.770;2023-04-24T15:08:06;9.00;99.90
54178;DHT22;40085;53.004;6.770;2023-04-24T15:10:32;9.00;99.90
54178;DHT22;40085;53.004;6.770;2023-04-24T15:12:58;9.10;99.90
54178;DHT22;40085;53.004;6.770;2023-04-24T15:15:24;9.10;99.90
54178;DHT22;40085;53.004;6.770;2023-04-24T15:17:49;9.00;99.90
54178;DHT22;40085;53.004;6.770;2023-04-24T15:20:15;9.00;99.90
54178;DHT22;40085;53.004;6.770;2023-04-24T15:22:40;8.90;99.90
54178;DHT22;40085;53.004;6.770;2023-04-24T15:25:06;8.90;99.90
54178;DHT22;40085;53.004;6.770;2023-04-24T15:27:40;8.90;99.90
54178;DHT22;40085;53.004;6.770;2023-04-24T15:30:07;8.80;99.90
54178;DHT22;40085;53.004;6.770;2023-04-24T15:32:32;8.90;99.90
54178;DHT22;40085;53.004;6.770;2023-04-24T15:34:58;8.90;99.90
54178;DHT22;40085;53.004;6.770;2023-04-24T15:37:23;8.90;99.90
54178;DHT22;40085;53.004;6.770;2023-04-24T15:39:50;8.90;99.90
54178;DHT22;40085;53.004;6.770;2023-04-24T15:42:16;8.90;99.90
54178;DHT22;40085;53.004;6.770;2023-04-24T15:44:41;8.90;99.90
54178;DHT22;40085;53.004;6.770;2023-04-24T15:47:07;8.90;99.90
54178;DHT22;40085;53.004;6.770;2023-04-24T15:49:32;8.90;99.90
54178;DHT22;40085;53.004;6.770;2023-04-24T15:51:58;8.90;99.90
54178;DHT22;40085;53.004;6.770;2023-04-24T15:54:23;8.90;99.90
54178;DHT22;40085;53.004;6.770;2023-04-24T15:56:50;8.80;99.90
54178;DHT22;40085;53.004;6.770;2023-04-24T15:59:16;8.90;99.90
54178;DHT22;40085;53.004;6.770;2023-04-24T16:01:42;8.90;99.90
54178;DHT22;40085;53.004;6.770;2023-04-24T16:04:08;8.90;99.90
54178;DHT22;40085;53.004;6.770;2023-04-24T16:06:33;8.90;99.90
54178;DHT22;40085;53.004;6.770;2023-04-24T16:09:00;8.90;99.90
54178;DHT22;40085;53.004;6.770;2023-04-24T16:11:25;8.90;99.90
54178;DHT22;40085;53.004;6.770;2023-04-24T16:13:51;8.90;99.90
54178;DHT22;40085;53.004;6.770;2023-04-24T16:16:17;9.40;99.90
54178;DHT22;40085;53.004;6.770;2023-04-24T16:18:43;9.00;99.90
54178;DHT22;40085;53.004;6.770;2023-04-24T16:21:09;9.00;99.90
54178;DHT22;40085;53.004;6.770;2023-04-24T16:23:34;9.00;99.90
54178;DHT22;40085;53.004;6.770;2023-04-24T16:26:00;9.00;99.90
54178;DHT22;40085;53.004;6.770;2023-04-24T16:28:26;8.90;99.90
54178;DHT22;40085;53.004;6.770;2023-04-24T16:30:52;8.90;99.90
54178;DHT22;40085;53.004;6.770;2023-04-24T16:33:17;8.90;99.90
54178;DHT22;40085;53.004;6.770;2023-04-24T16:35:43;8.90;99.90
54178;DHT22;40085;53.004;6.770;2023-04-24T16:38:11;8.90;99.90
54178;DHT22;40085;53.004;6.770;2023-04-24T16:40:36;9.20;99.90
54178;DHT22;40085;53.004;6.770;2023-04-24T16:43:02;8.90;99.90
54178;DHT22;40085;53.004;6.770;2023-04-24T16:45:28;8.90;99.90
54178;DHT22;40085;53.004;6.770;2023-04-24T16:47:53;8.90;99.90
54178;DHT22;40085;53.004;6.770;2023-04-24T16:50:19;8.90;99.90
54178;DHT22;40085;53.004;6.770;2023-04-24T16:52:45;9.00;99.90
54178;DHT22;40085;53.004;6.770;2023-04-24T16:55:11;9.00;99.90
54178;DHT22;40085;53.004;6.770;2023-04-24T16:57:36;8.90;99.90
54178;DHT22;40085;53.004;6.770;2023-04-24T17:00:02;8.90;99.90
54178;DHT22;40085;53.004;6.770;2023-04-24T17:02:28;8.90;99.90
54178;DHT22;40085;53.004;6.770;2023-04-24T17:04:54;8.90;99.90
54178;DHT22;40085;53.004;6.770;2023-04-24T17:07:20;8.90;99.90
54178;DHT22;40085;53.004;6.770;2023-04-24T17:09:45;8.90;99.90
54178;DHT22;40085;53.004;6.770;2023-04-24T17:12:11;8.90;99.90
54178;DHT22;40085;53.004;6.770;2023-04-24T17:14:37;9.40;99.90
54178;DHT22;40085;53.004;6.770;2023-04-24T17:17:02;8.90;99.90
54178;DHT22;40085;53.004;6.770;2023-04-24T17:19:28;8.80;99.90
54178;DHT22;40085;53.004;6.770;2023-04-24T17:21:54;8.70;99.90
54178;DHT22;40085;53.004;6.770;2023-04-24T17:24:20;8.70;99.90
54178;DHT22;40085;53.004;6.770;2023-04-24T17:26:47;8.70;99.90
54178;DHT22;40085;53.004;6.770;2023-04-24T17:29:12;8.60;99.90
54178;DHT22;40085;53.004;6.770;2023-04-24T17:31:38;8.50;99.90
54178;DHT22;40085;53.004;6.770;2023-04-24T17:34:04;8.50;99.90
54178;DHT22;40085;53.004;6.770;2023-04-24T17:36:29;8.40;99.90
54178;DHT22;40085;53.004;6.770;2023-04-24T17:38:56;8.40;99.90
54178;DHT22;40085;53.004;6.770;2023-04-24T17:41:21;8.30;99.90
54178;DHT22;40085;53.004;6.770;2023-04-24T17:43:47;8.40;99.90
54178;DHT22;40085;53.004;6.770;2023-04-24T17:46:12;8.40;99.90
54178;DHT22;40085;53.004;6.770;2023-04-24T17:48:38;8.30;99.90
54178;DHT22;40085;53.004;6.770;2023-04-24T17:51:04;8.30;99.90
54178;DHT22;40085;53.004;6.770;2023-04-24T17:53:29;8.30;99.90
54178;DHT22;40085;53.004;6.770;2023-04-24T17:55:55;8.30;99.90
54178;DHT22;40085;53.004;6.770;2023-04-24T17:58:23;8.20;99.90
54178;DHT22;40085;53.004;6.770;2023-04-24T18:00:49;8.20;99.90
54178;DHT22;40085;53.004;6.770;2023-04-24T18:03:15;8.20;99.90
54178;DHT22;40085;53.004;6.770;2023-04-24T18:05:41;8.20;99.90
54178;DHT22;40085;53.004;6.770;2023-04-24T18:08:06;8.10;99.90
54178;DHT22;40085;53.004;6.770;2023-04-24T18:10:33;8.10;99.90
54178;DHT22;40085;53.004;6.770;2023-04-24T18:13:02;8.10;99.90
54178;DHT22;40085;53.004;6.770;2023-04-24T18:15:28;8.00;99.90
54178;DHT22;40085;53.004;6.770;2023-04-24T18:17:54;8.00;99.90
54178;DHT22;40085;53.004;6.770;2023-04-24T18:20:20;8.00;99.90
54178;DHT22;40085;53.004;6.770;2023-04-24T18:22:45;8.00;99.90
54178;DHT22;40085;53.004;6.770;2023-04-24T18:25:12;7.90;99.90
54178;DHT22;40085;53.004;6.770;2023-04-24T18:27:39;7.90;99.90
54178;DHT22;40085;53.004;6.770;2023-04-24T18:30:06;7.90;99.90
54178;DHT22;40085;53.004;6.770;2023-04-24T18:32:32;7.90;99.90
54178;DHT22;40085;53.004;6.770;2023-04-24T18:34:58;7.90;99.90
54178;DHT22;40085;53.004;6.770;2023-04-24T18:37:24;7.90;99.90
54178;DHT22;40085;53.004;6.770;2023-04-24T18:39:49;7.90;99.90
54178;DHT22;40085;53.004;6.770;2023-04-24T18:42:16;7.90;99.90
54178;DHT22;40085;53.004;6.770;2023-04-24T18:44:42;7.90;99.90
54178;DHT22;40085;53.004;6.770;2023-04-24T18:47:08;7.80;99.90
54178;DHT22;40085;53.004;6.770;2023-04-24T18:49:34;7.90;99.90
54178;DHT22;40085;53.004;6.770;2023-04-24T18:52:00;7.90;99.90
54178;DHT22;40085;53.004;6.770;2023-04-24T18:54:26;7.80;99.90
54178;DHT22;40085;53.004;6.770;2023-04-24T18:56:51;7.90;99.90
54178;DHT22;40085;53.004;6.770;2023-04-24T18:59:18;7.80;99.90
54178;DHT22;40085;53.004;6.770;2023-04-24T19:01:44;8.00;99.90
54178;DHT22;40085;53.004;6.770;2023-04-24T19:04:09;7.80;99.90
54178;DHT22;40085;53.004;6.770;2023-04-24T19:06:35;7.70;99.90
54178;DHT22;40085;53.004;6.770;2023-04-24T19:09:01;7.70;99.90
54178;DHT22;40085;53.004;6.770;2023-04-24T19:11:27;7.70;99.90
54178;DHT22;40085;53.004;6.770;2023-04-24T19:13:52;7.70;99.90
54178;DHT22;40085;53.004;6.770;2023-04-24T19:16:18;7.70;99.90
54178;DHT22;40085;53.004;6.770;2023-04-24T19:18:44;7.60;99.90
54178;DHT22;40085;53.004;6.770;2023-04-24T19:21:10;7.60;99.90
54178;DHT22;40085;53.004;6.770;2023-04-24T19:23:35;7.60;99.90
54178;DHT22;40085;53.004;6.770;2023-04-24T19:26:04;7.50;99.90
54178;DHT22;40085;53.004;6.770;2023-04-24T19:28:30;7.50;99.90
54178;DHT22;40085;53.004;6.770;2023-04-24T19:30:56;7.50;99.90
54178;DHT22;40085;53.004;6.770;2023-04-24T19:33:26;7.40;99.90
54178;DHT22;40085;53.004;6.770;2023-04-24T19:35:52;7.40;99.90
54178;DHT22;40085;53.004;6.770;2023-04-24T19:38:18;7.40;99.90
54178;DHT22;40085;53.004;6.770;2023-04-24T19:40:44;7.40;99.90
54178;DHT22;40085;53.004;6.770;2023-04-24T19:43:09;7.40;99.90
54178;DHT22;40085;53.004;6.770;2023-04-24T19:45:35;7.40;99.90
54178;DHT22;40085;53.004;6.770;2023-04-24T19:48:01;7.40;99.90
54178;DHT22;40085;53.004;6.770;2023-04-24T19:50:27;7.40;99.90
54178;DHT22;40085;53.004;6.770;2023-04-24T19:52:52;7.40;99.90
54178;DHT22;40085;53.004;6.770;2023-04-24T19:55:18;7.40;99.90
54178;DHT22;40085;53.004;6.770;2023-04-24T19:57:44;7.40;99.90
54178;DHT22;40085;53.004;6.770;2023-04-24T20:00:10;7.40;99.90
54178;DHT22;40085;53.004;6.770;2023-04-24T20:02:36;7.40;99.90
54178;DHT22;40085;53.004;6.770;2023-04-24T20:05:01;7.50;99.90
54178;DHT22;40085;53.004;6.770;2023-04-24T20:07:27;7.50;99.90
54178;DHT22;40085;53.004;6.770;2023-04-24T20:09:53;7.50;99.90
54178;DHT22;40085;53.004;6.770;2023-04-24T20:12:18;7.90;99.90
54178;DHT22;40085;53.004;6.770;2023-04-24T20:14:46;7.50;99.90
54178;DHT22;40085;53.004;6.770;2023-04-24T20:17:12;7.50;99.90
54178;DHT22;40085;53.004;6.770;2023-04-24T20:19:38;7.50;99.90
54178;DHT22;40085;53.004;6.770;2023-04-24T20:22:05;7.50;99.90
54178;DHT22;40085;53.004;6.770;2023-04-24T20:24:31;7.50;99.90
54178;DHT22;40085;53.004;6.770;2023-04-24T20:26:57;7.60;99.90
54178;DHT22;40085;53.004;6.770;2023-04-24T20:29:22;7.60;99.90
54178;DHT22;40085;53.004;6.770;2023-04-24T20:31:48;7.60;99.90
54178;DHT22;40085;53.004;6.770;2023-04-24T20:34:14;7.60;99.90
54178;DHT22;40085;53.004;6.770;2023-04-24T20:36:39;7.70;99.90
54178;DHT22;40085;53.004;6.770;2023-04-24T20:39:05;7.70;99.90
54178;DHT22;40085;53.004;6.770;2023-04-24T20:41:32;7.80;99.90
54178;DHT22;40085;53.004;6.770;2023-04-24T20:43:59;7.70;99.90
54178;DHT22;40085;53.004;6.770;2023-04-24T20:46:25;7.70;99.90
54178;DHT22;40085;53.004;6.770;2023-04-24T20:48:51;7.70;99.90
54178;DHT22;40085;53.004;6.770;2023-04-24T20:51:17;7.80;99.90
54178;DHT22;40085;53.004;6.770;2023-04-24T20:53:44;7.70;99.90
54178;DHT22;40085;53.004;6.770;2023-04-24T20:56:10;7.70;99.90
54178;DHT22;40085;53.004;6.770;2023-04-24T20:58:36;7.60;99.90
54178;DHT22;40085;53.004;6.770;2023-04-24T21:01:02;7.70;99.90
54178;DHT22;40085;53.004;6.770;2023-04-24T21:03:27;7.60;99.90
54178;DHT22;40085;53.004;6.770;2023-04-24T21:05:53;7.50;99.90
54178;DHT22;40085;53.004;6.770;2023-04-24T21:08:19;8.50;99.90
54178;DHT22;40085;53.004;6.770;2023-04-24T21:10:44;8.20;99.90
54178;DHT22;40085;53.004;6.770;2023-04-24T21:13:10;7.50;99.90
54178;DHT22;40085;53.004;6.770;2023-04-24T21:15:36;7.50;99.90
54178;DHT22;40085;53.004;6.770;2023-04-24T21:18:01;7.50;99.90
54178;DHT22;40085;53.004;6.770;2023-04-24T21:20:27;7.50;99.90
54178;DHT22;40085;53.004;6.770;2023-04-24T21:22:53;7.50;99.90
54178;DHT22;40085;53.004;6.770;2023-04-24T21:25:18;7.60;99.90
54178;DHT22;40085;53.004;6.770;2023-04-24T21:27:44;7.60;99.90
54178;DHT22;40085;53.004;6.770;2023-04-24T21:30:10;7.60;99.90
54178;DHT22;40085;53.004;6.770;2023-04-24T21:32:36;7.50;99.90
54178;DHT22;40085;53.004;6.770;2023-04-24T21:35:03;7.60;99.90
54178;DHT22;40085;53.004;6.770;2023-04-24T21:37:30;7.60;99.90
54178;DHT22;40085;53.004;6.770;2023-04-24T21:39:58;7.60;99.90
54178;DHT22;40085;53.004;6.770;2023-04-24T21:42:23;7.60;99.90
54178;DHT22;40085;53.004;6.770;2023-04-24T21:44:49;7.60;99.90
54178;DHT22;40085;53.004;6.770;2023-04-24T21:47:15;7.60;99.90
54178;DHT22;40085;53.004;6.770;2023-04-24T21:49:40;7.60;99.90
54178;DHT22;40085;53.004;6.770;2023-04-24T21:52:06;7.60;99.90
54178;DHT22;40085;53.004;6.770;2023-04-24T21:54:32;7.50;99.90
54178;DHT22;40085;53.004;6.770;2023-04-24T21:56:58;7.50;99.90
54178;DHT22;40085;53.004;6.770;2023-04-24T21:59:23;7.50;99.90
54178;DHT22;40085;53.004;6.770;2023-04-24T22:01:49;7.50;99.90
54178;DHT22;40085;53.004;6.770;2023-04-24T22:04:15;7.50;99.90
54178;DHT22;40085;53.004;6.770;2023-04-24T22:06:40;7.50;99.90
54178;DHT22;40085;53.004;6.770;2023-04-24T22:09:06;7.50;99.90
54178;DHT22;40085;53.004;6.770;2023-04-24T22:11:33;7.50;99.90
54178;DHT22;40085;53.004;6.770;2023-04-24T22:13:59;7.50;99.90
54178;DHT22;40085;53.004;6.770;2023-04-24T22:16:24;7.50;99.90
54178;DHT22;40085;53.004;6.770;2023-04-24T22:18:50;7.40;99.90
54178;DHT22;40085;53.004;6.770;2023-04-24T22:21:20;7.40;99.90
54178;DHT22;40085;53.004;6.770;2023-04-24T22:23:46;7.50;99.90
54178;DHT22;40085;53.004;6.770;2023-04-24T22:26:12;7.40;99.90
54178;DHT22;40085;53.004;6.770;2023-04-24T22:28:38;7.40;99.90
54178;DHT22;40085;53.004;6.770;2023-04-24T22:31:03;7.40;99.90
54178;DHT22;40085;53.004;6.770;2023-04-24T22:33:29;7.40;99.90
54178;DHT22;40085;53.004;6.770;2023-04-24T22:35:54;7.40;99.90
54178;DHT22;40085;53.004;6.770;2023-04-24T22:38:20;7.40;99.90
54178;DHT22;40085;53.004;6.770;2023-04-24T22:40:46;7.40;99.90
54178;DHT22;40085;53.004;6.770;2023-04-24T22:43:12;7.30;99.90
54178;DHT22;40085;53.004;6.770;2023-04-24T22:45:37;7.30;99.90
54178;DHT22;40085;53.004;6.770;2023-04-24T22:48:03;7.40;99.90
54178;DHT22;40085;53.004;6.770;2023-04-24T22:50:29;7.30;99.90
54178;DHT22;40085;53.004;6.770;2023-04-24T22:52:55;7.30;99.90
54178;DHT22;40085;53.004;6.770;2023-04-24T22:55:20;7.20;99.90
54178;DHT22;40085;53.004;6.770;2023-04-24T22:57:49;7.20;99.90
54178;DHT22;40085;53.004;6.770;2023-04-24T23:00:15;7.20;99.90
54178;DHT22;40085;53.004;6.770;2023-04-24T23:02:41;7.10;99.90
54178;DHT22;40085;53.004;6.770;2023-04-24T23:05:08;7.10;99.90
54178;DHT22;40085;53.004;6.770;2023-04-24T23:07:34;7.10;99.90